sensor_id;sensor_type;location;lat;lon;timestamp;temperature;humidity
22680;DHT22;11507;44.858;10.374;2024-01-30T00:01:52;-1.50;99.90
22680;DHT22;11507;44.858;10.374;2024-01-30T00:04:18;-1.50;99.90
22680;DHT22;11507;44.858;10.374;2024-01-30T00:06:44;-1.50;99.90
22680;DHT22;11507;44.858;10.374;2024-01-30T00:09:10;-1.50;99.90
22680;DHT22;11507;44.858;10.374;2024-01-30T00:11:36;-1.50;99.90
22680;DHT22;11507;44.858;10.374;2024-01-30T00:14:03;-1.50;99.90
22680;DHT22;11507;44.858;10.374;2024-01-30T00:16:29;-1.60;99.90
22680;DHT22;11507;44.858;10.374;2024-01-30T00:18:55;-1.60;99.90
22680;DHT22;11507;44.858;10.374;2024-01-30T00:21:21;-1.60;99.90
22680;DHT22;11507;44.858;10.374;2024-01-30T00:23:47;-1.60;99.90
22680;DHT22;11507;44.858;10.374;2024-01-30T00:26:13;-1.60;99.90
22680;DHT22;11507;44.858;10.374;2024-01-30T00:28:43;-1.70;99.90
22680;DHT22;11507;44.858;10.374;2024-01-30T00:31:09;-1.70;99.90
22680;DHT22;11507;44.858;10.374;2024-01-30T00:33:40;-1.70;99.90
22680;DHT22;11507;44.858;10.374;2024-01-30T00:36:07;-1.60;99.90
22680;DHT22;11507;44.858;10.374;2024-01-30T00:38:33;-1.60;99.90
22680;DHT22;11507;44.858;10.374;2024-01-30T00:40:59;-1.60;99.90
22680;DHT22;11507;44.858;10.374;2024-01-30T00:43:25;-1.60;99.90
22680;DHT22;11507;44.858;10.374;2024-01-30T00:45:51;-1.60;99.90
22680;DHT22;11507;44.858;10.374;2024-01-30T00:48:20;-1.60;99.90
22680;DHT22;11507;44.858;10.374;2024-01-30T00:50:46;-1.50;99.90
22680;DHT22;11507;44.858;10.374;2024-01-30T00:53:12;-1.50;99.90
22680;DHT22;11507;44.858;10.374;2024-01-30T00:55:38;-1.50;99.90
22680;DHT22;11507;44.858;10.374;2024-01-30T00:58:04;-1.50;99.90
22680;DHT22;11507;44.858;10.374;2024-01-30T01:00:30;-1.40;99.90
22680;DHT22;11507;44.858;10.374;2024-01-30T01:02:58;-1.40;99.90
22680;DHT22;11507;44.858;10.374;2024-01-30T01:05:24;-1.40;99.90
22680;DHT22;11507;44.858;10.374;2024-01-30T01:07:50;-1.40;99.90
22680;DHT22;11507;44.858;10.374;2024-01-30T01:10:16;-1.40;99.90
22680;DHT22;11507;44.858;10.374;2024-01-30T01:12:42;-1.40;99.90
22680;DHT22;11507;44.858;10.374;2024-01-30T01:15:08;-1.40;99.90
22680;DHT22;11507;44.858;10.374;2024-01-30T01:17:37;-1.40;99.90
22680;DHT22;11507;44.858;10.374;2024-01-30T01:20:04;-1.40;99.90
22680;DHT22;11507;44.858;10.374;2024-01-30T01:22:33;-1.40;99.90
22680;DHT22;11507;44.858;10.374;2024-01-30T01:24:59;-1.40;99.90
22680;DHT22;11507;44.858;10.374;2024-01-30T01:27:25;-1.40;99.90
22680;DHT22;11507;44.858;10.374;2024-01-30T01:29:52;-1.30;99.90
22680;DHT22;11507;44.858;10.374;2024-01-30T01:32:18;-1.30;99.90
22680;DHT22;11507;44.858;10.374;2024-01-30T01:34:44;-1.30;99.90
22680;DHT22;11507;44.858;10.374;2024-01-30T01:37:10;-1.30;99.90
22680;DHT22;11507;44.858;10.374;2024-01-30T01:39:36;-1.40;99.90
22680;DHT22;11507;44.858;10.374;2024-01-30T01:42:02;-1.40;99.90
22680;DHT22;11507;44.858;10.374;2024-01-30T01:44:28;-1.40;99.90
22680;DHT22;11507;44.858;10.374;2024-01-30T01:46:54;-1.40;99.90
22680;DHT22;11507;44.858;10.374;2024-01-30T01:49:20;-1.30;99.90
22680;DHT22;11507;44.858;10.374;2024-01-30T01:51:47;-1.30;99.90
22680;DHT22;11507;44.858;10.374;2024-01-30T01:54:14;-1.30;99.90
22680;DHT22;11507;44.858;10.374;2024-01-30T01:56:39;-1.30;99.90
22680;DHT22;11507;44.858;10.374;2024-01-30T01:59:06;-1.30;99.90
22680;DHT22;11507;44.858;10.374;2024-01-30T02:01:38;-1.20;99.90
22680;DHT22;11507;44.858;10.374;2024-01-30T02:04:07;-1.20;99.90
22680;DHT22;11507;44.858;10.374;2024-01-30T02:06:33;-1.20;99.90
22680;DHT22;11507;44.858;10.374;2024-01-30T02:08:59;-1.20;99.90
22680;DHT22;11507;44.858;10.374;2024-01-30T02:11:25;-1.10;99.90
22680;DHT22;11507;44.858;10.374;2024-01-30T02:13:51;-1.10;99.90
22680;DHT22;11507;44.858;10.374;2024-01-30T02:16:17;-1.10;99.90
22680;DHT22;11507;44.858;10.374;2024-01-30T02:18:43;-1.10;99.90
22680;DHT22;11507;44.858;10.374;2024-01-30T02:21:13;-1.20;99.90
22680;DHT22;11507;44.858;10.374;2024-01-30T02:23:39;-1.20;99.90
22680;DHT22;11507;44.858;10.374;2024-01-30T02:26:06;-1.20;99.90
22680;DHT22;11507;44.858;10.374;2024-01-30T02:28:32;-1.20;99.90
22680;DHT22;11507;44.858;10.374;2024-01-30T02:30:58;-1.20;99.90
22680;DHT22;11507;44.858;10.374;2024-01-30T02:33:24;-1.20;99.90
22680;DHT22;11507;44.858;10.374;2024-01-30T02:35:50;-1.20;99.90
22680;DHT22;11507;44.858;10.374;2024-01-30T02:38:16;-1.20;99.90
22680;DHT22;11507;44.858;10.374;2024-01-30T02:40:42;-1.20;99.90
22680;DHT22;11507;44.858;10.374;2024-01-30T02:43:08;-1.10;99.90
22680;DHT22;11507;44.858;10.374;2024-01-30T02:45:34;-1.20;99.90
22680;DHT22;11507;44.858;10.374;2024-01-30T02:48:00;-1.20;99.90
22680;DHT22;11507;44.858;10.374;2024-01-30T02:50:26;-1.10;99.90
22680;DHT22;11507;44.858;10.374;2024-01-30T02:52:52;-1.10;99.90
22680;DHT22;11507;44.858;10.374;2024-01-30T02:55:17;-1.10;99.90
22680;DHT22;11507;44.858;10.374;2024-01-30T02:57:44;-1.10;99.90
22680;DHT22;11507;44.858;10.374;2024-01-30T03:00:10;-1.10;99.90
22680;DHT22;11507;44.858;10.374;2024-01-30T03:02:36;-1.20;99.90
22680;DHT22;11507;44.858;10.374;2024-01-30T03:05:02;-1.20;99.90
22680;DHT22;11507;44.858;10.374;2024-01-30T03:07:29;-1.20;99.90
22680;DHT22;11507;44.858;10.374;2024-01-30T03:09:55;-1.20;99.90
22680;DHT22;11507;44.858;10.374;2024-01-30T03:12:21;-1.20;99.90
22680;DHT22;11507;44.858;10.374;2024-01-30T03:14:47;-1.20;99.90
22680;DHT22;11507;44.858;10.374;2024-01-30T03:17:13;-1.30;99.90
22680;DHT22;11507;44.858;10.374;2024-01-30T03:19:39;-1.20;99.90
22680;DHT22;11507;44.858;10.374;2024-01-30T03:22:06;-1.20;99.90
22680;DHT22;11507;44.858;10.374;2024-01-30T03:24:32;-1.20;99.90
22680;DHT22;11507;44.858;10.374;2024-01-30T03:26:58;-1.20;99.90
22680;DHT22;11507;44.858;10.374;2024-01-30T03:29:24;-1.20;99.90
22680;DHT22;11507;44.858;10.374;2024-01-30T03:31:50;-1.30;99.90
22680;DHT22;11507;44.858;10.374;2024-01-30T03:34:16;-1.30;99.90
22680;DHT22;11507;44.858;10.374;2024-01-30T03:36:42;-1.30;99.90
22680;DHT22;11507;44.858;10.374;2024-01-30T03:39:08;-1.30;99.90
22680;DHT22;11507;44.858;10.374;2024-01-30T03:41:34;-1.40;99.90
22680;DHT22;11507;44.858;10.374;2024-01-30T03:44:00;-1.40;99.90
22680;DHT22;11507;44.858;10.374;2024-01-30T03:46:26;-1.50;99.90
22680;DHT22;11507;44.858;10.374;2024-01-30T03:51:44;-1.60;99.90
22680;DHT22;11507;44.858;10.374;2024-01-30T03:54:10;-1.60;99.90
22680;DHT22;11507;44.858;10.374;2024-01-30T03:56:36;-1.60;99.90
22680;DHT22;11507;44.858;10.374;2024-01-30T03:59:02;-1.60;99.90
22680;DHT22;11507;44.858;10.374;2024-01-30T04:01:28;-1.60;99.90
22680;DHT22;11507;44.858;10.374;2024-01-30T04:03:54;-1.60;99.90
22680;DHT22;11507;44.858;10.374;2024-01-30T04:06:20;-1.50;99.90
22680;DHT22;11507;44.858;10.374;2024-01-30T04:08:46;-1.50;99.90
22680;DHT22;11507;44.858;10.374;2024-01-30T04:11:12;-1.50;99.90
22680;DHT22;11507;44.858;10.374;2024-01-30T04:13:38;-1.40;99.90
22680;DHT22;11507;44.858;10.374;2024-01-30T04:16:03;-1.40;99.90
22680;DHT22;11507;44.858;10.374;2024-01-30T04:18:30;-1.40;99.90
22680;DHT22;11507;44.858;10.374;2024-01-30T04:20:56;-1.40;99.90
22680;DHT22;11507;44.858;10.374;2024-01-30T04:23:21;-1.40;99.90
22680;DHT22;11507;44.858;10.374;2024-01-30T04:25:47;-1.40;99.90
22680;DHT22;11507;44.858;10.374;2024-01-30T04:28:14;-1.40;99.90
22680;DHT22;11507;44.858;10.374;2024-01-30T04:30:40;-1.40;99.90
22680;DHT22;11507;44.858;10.374;2024-01-30T04:33:06;-1.30;99.90
22680;DHT22;11507;44.858;10.374;2024-01-30T04:35:32;-1.30;99.90
22680;DHT22;11507;44.858;10.374;2024-01-30T04:37:57;-1.40;99.90
22680;DHT22;11507;44.858;10.374;2024-01-30T04:40:23;-1.30;99.90
22680;DHT22;11507;44.858;10.374;2024-01-30T04:42:49;-1.30;99.90
22680;DHT22;11507;44.858;10.374;2024-01-30T04:45:15;-1.30;99.90
22680;DHT22;11507;44.858;10.374;2024-01-30T04:47:41;-1.40;99.90
22680;DHT22;11507;44.858;10.374;2024-01-30T04:50:07;-1.40;99.90
22680;DHT22;11507;44.858;10.374;2024-01-30T04:52:34;-1.50;99.90
22680;DHT22;11507;44.858;10.374;2024-01-30T04:55:01;-1.40;99.90
22680;DHT22;11507;44.858;10.374;2024-01-30T04:57:27;-1.40;99.90
22680;DHT22;11507;44.858;10.374;2024-01-30T04:59:53;-1.40;99.90
22680;DHT22;11507;44.858;10.374;2024-01-30T05:02:19;-1.40;99.90
22680;DHT22;11507;44.858;10.374;2024-01-30T05:04:45;-1.50;99.90
22680;DHT22;11507;44.858;10.374;2024-01-30T05:07:11;-1.50;99.90
22680;DHT22;11507;44.858;10.374;2024-01-30T05:09:37;-1.60;99.90
22680;DHT22;11507;44.858;10.374;2024-01-30T05:12:03;-1.60;99.90
22680;DHT22;11507;44.858;10.374;2024-01-30T05:14:29;-1.70;99.90
22680;DHT22;11507;44.858;10.374;2024-01-30T05:16:55;-1.60;99.90
22680;DHT22;11507;44.858;10.374;2024-01-30T05:19:20;-1.70;99.90
22680;DHT22;11507;44.858;10.374;2024-01-30T05:21:49;-1.80;99.90
22680;DHT22;11507;44.858;10.374;2024-01-30T05:24:15;-1.80;99.90
22680;DHT22;11507;44.858;10.374;2024-01-30T05:26:41;-1.90;99.90
22680;DHT22;11507;44.858;10.374;2024-01-30T05:29:07;-1.90;99.90
22680;DHT22;11507;44.858;10.374;2024-01-30T05:31:33;-1.90;99.90
22680;DHT22;11507;44.858;10.374;2024-01-30T05:34:00;-1.90;99.90
22680;DHT22;11507;44.858;10.374;2024-01-30T05:36:26;-1.90;99.90
22680;DHT22;11507;44.858;10.374;2024-01-30T05:38:52;-1.90;99.90
22680;DHT22;11507;44.858;10.374;2024-01-30T05:41:18;-1.90;99.90
22680;DHT22;11507;44.858;10.374;2024-01-30T05:43:44;-1.90;99.90
22680;DHT22;11507;44.858;10.374;2024-01-30T05:48:44;-1.90;99.90
22680;DHT22;11507;44.858;10.374;2024-01-30T05:51:10;-1.90;99.90
22680;DHT22;11507;44.858;10.374;2024-01-30T05:53:36;-1.90;99.90
22680;DHT22;11507;44.858;10.374;2024-01-30T05:56:02;-1.90;99.90
22680;DHT22;11507;44.858;10.374;2024-01-30T05:58:29;-1.90;99.90
22680;DHT22;11507;44.858;10.374;2024-01-30T06:00:55;-1.90;99.90
22680;DHT22;11507;44.858;10.374;2024-01-30T06:03:21;-1.90;99.90
22680;DHT22;11507;44.858;10.374;2024-01-30T06:05:46;-1.90;99.90
22680;DHT22;11507;44.858;10.374;2024-01-30T06:08:12;-1.90;99.90
22680;DHT22;11507;44.858;10.374;2024-01-30T06:10:38;-1.90;99.90
22680;DHT22;11507;44.858;10.374;2024-01-30T06:13:04;-2.00;99.90
22680;DHT22;11507;44.858;10.374;2024-01-30T06:15:30;-2.00;99.90
22680;DHT22;11507;44.858;10.374;2024-01-30T06:17:58;-2.00;99.90
22680;DHT22;11507;44.858;10.374;2024-01-30T06:20:24;-2.00;99.90
22680;DHT22;11507;44.858;10.374;2024-01-30T06:22:50;-1.90;99.90
22680;DHT22;11507;44.858;10.374;2024-01-30T06:25:16;-1.90;99.90
22680;DHT22;11507;44.858;10.374;2024-01-30T06:27:42;-1.90;99.90
22680;DHT22;11507;44.858;10.374;2024-01-30T06:30:08;-2.00;99.90
22680;DHT22;11507;44.858;10.374;2024-01-30T06:32:37;-2.00;99.90
22680;DHT22;11507;44.858;10.374;2024-01-30T06:35:04;-2.00;99.90
22680;DHT22;11507;44.858;10.374;2024-01-30T06:37:31;-2.00;99.90
22680;DHT22;11507;44.858;10.374;2024-01-30T06:39:57;-1.90;99.90
22680;DHT22;11507;44.858;10.374;2024-01-30T06:42:23;-2.00;99.90
22680;DHT22;11507;44.858;10.374;2024-01-30T06:44:50;-1.90;99.90
22680;DHT22;11507;44.858;10.374;2024-01-30T06:47:16;-1.90;99.90
22680;DHT22;11507;44.858;10.374;2024-01-30T06:49:42;-2.00;99.90
22680;DHT22;11507;44.858;10.374;2024-01-30T06:52:09;-2.00;99.90
22680;DHT22;11507;44.858;10.374;2024-01-30T06:54:36;-2.00;99.90
22680;DHT22;11507;44.858;10.374;2024-01-30T06:57:02;-2.10;99.90
22680;DHT22;11507;44.858;10.374;2024-01-30T06:59:28;-2.00;99.90
22680;DHT22;11507;44.858;10.374;2024-01-30T07:01:54;-2.10;99.90
22680;DHT22;11507;44.858;10.374;2024-01-30T07:04:20;-2.00;99.90
22680;DHT22;11507;44.858;10.374;2024-01-30T07:06:46;-2.10;99.90
22680;DHT22;11507;44.858;10.374;2024-01-30T07:09:12;-2.10;99.90
22680;DHT22;11507;44.858;10.374;2024-01-30T07:11:39;-2.10;99.90
22680;DHT22;11507;44.858;10.374;2024-01-30T07:14:05;-2.10;99.90
22680;DHT22;11507;44.858;10.374;2024-01-30T07:16:31;-2.10;99.90
22680;DHT22;11507;44.858;10.374;2024-01-30T07:18:56;-2.10;99.90
22680;DHT22;11507;44.858;10.374;2024-01-30T07:21:22;-2.10;99.90
22680;DHT22;11507;44.858;10.374;2024-01-30T07:23:53;-2.10;99.90
22680;DHT22;11507;44.858;10.374;2024-01-30T07:26:19;-2.00;99.90
22680;DHT22;11507;44.858;10.374;2024-01-30T07:28:45;-2.00;99.90
22680;DHT22;11507;44.858;10.374;2024-01-30T07:31:11;-2.00;99.90
22680;DHT22;11507;44.858;10.374;2024-01-30T07:33:37;-2.00;99.90
22680;DHT22;11507;44.858;10.374;2024-01-30T07:36:03;-2.00;99.90
22680;DHT22;11507;44.858;10.374;2024-01-30T07:38:31;-2.00;99.90
22680;DHT22;11507;44.858;10.374;2024-01-30T07:40:57;-2.00;99.90
22680;DHT22;11507;44.858;10.374;2024-01-30T07:43:23;-2.00;99.90
22680;DHT22;11507;44.858;10.374;2024-01-30T07:45:49;-1.90;99.90
22680;DHT22;11507;44.858;10.374;2024-01-30T07:48:15;-1.80;99.90
22680;DHT22;11507;44.858;10.374;2024-01-30T07:50:41;-1.80;99.90
22680;DHT22;11507;44.858;10.374;2024-01-30T07:53:07;-1.70;99.90
22680;DHT22;11507;44.858;10.374;2024-01-30T07:55:33;-1.70;99.90
22680;DHT22;11507;44.858;10.374;2024-01-30T07:57:59;-1.70;99.90
22680;DHT22;11507;44.858;10.374;2024-01-30T08:00:25;-1.60;99.90
22680;DHT22;11507;44.858;10.374;2024-01-30T08:02:51;-1.60;99.90
22680;DHT22;11507;44.858;10.374;2024-01-30T08:05:19;-1.70;99.90
22680;DHT22;11507;44.858;10.374;2024-01-30T08:07:48;-1.70;99.90
22680;DHT22;11507;44.858;10.374;2024-01-30T08:10:14;-1.70;99.90
22680;DHT22;11507;44.858;10.374;2024-01-30T08:12:40;-1.70;99.90
22680;DHT22;11507;44.858;10.374;2024-01-30T08:15:06;-1.70;99.90
22680;DHT22;11507;44.858;10.374;2024-01-30T08:17:33;-1.70;99.90
22680;DHT22;11507;44.858;10.374;2024-01-30T08:19:59;-1.60;99.90
22680;DHT22;11507;44.858;10.374;2024-01-30T08:22:25;-1.50;99.90
22680;DHT22;11507;44.858;10.374;2024-01-30T08:24:51;-1.50;99.90
22680;DHT22;11507;44.858;10.374;2024-01-30T08:27:17;-1.40;99.90
22680;DHT22;11507;44.858;10.374;2024-01-30T08:29:42;-1.40;99.90
22680;DHT22;11507;44.858;10.374;2024-01-30T08:32:08;-1.30;99.90
22680;DHT22;11507;44.858;10.374;2024-01-30T08:34:34;-1.40;99.90
22680;DHT22;11507;44.858;10.374;2024-01-30T08:37:00;-1.20;99.90
22680;DHT22;11507;44.858;10.374;2024-01-30T08:39:26;-1.10;99.90
22680;DHT22;11507;44.858;10.374;2024-01-30T08:41:52;-1.10;99.90
22680;DHT22;11507;44.858;10.374;2024-01-30T08:44:18;-1.10;99.90
22680;DHT22;11507;44.858;10.374;2024-01-30T08:46:45;-1.10;99.90
22680;DHT22;11507;44.858;10.374;2024-01-30T08:49:11;-1.00;99.90
22680;DHT22;11507;44.858;10.374;2024-01-30T08:51:39;-0.90;99.90
22680;DHT22;11507;44.858;10.374;2024-01-30T08:54:05;-0.90;99.90
22680;DHT22;11507;44.858;10.374;2024-01-30T08:56:31;-0.80;99.90
22680;DHT22;11507;44.858;10.374;2024-01-30T08:58:57;-0.80;99.90
22680;DHT22;11507;44.858;10.374;2024-01-30T09:01:23;-0.70;99.90
22680;DHT22;11507;44.858;10.374;2024-01-30T09:03:49;-0.70;99.90
22680;DHT22;11507;44.858;10.374;2024-01-30T09:06:14;-0.50;99.90
22680;DHT22;11507;44.858;10.374;2024-01-30T09:08:40;-0.30;99.90
22680;DHT22;11507;44.858;10.374;2024-01-30T09:11:10;-0.20;99.90
22680;DHT22;11507;44.858;10.374;2024-01-30T09:13:36;-0.20;99.90
22680;DHT22;11507;44.858;10.374;2024-01-30T09:16:02;-0.10;99.90
22680;DHT22;11507;44.858;10.374;2024-01-30T09:18:28;-0.10;99.90
22680;DHT22;11507;44.858;10.374;2024-01-30T09:20:54;0.00;99.90
22680;DHT22;11507;44.858;10.374;2024-01-30T09:23:20;0.10;99.90
22680;DHT22;11507;44.858;10.374;2024-01-30T09:25:46;0.30;99.90
22680;DHT22;11507;44.858;10.374;2024-01-30T09:28:12;0.40;99.90
22680;DHT22;11507;44.858;10.374;2024-01-30T09:30:38;0.40;99.90
22680;DHT22;11507;44.858;10.374;2024-01-30T09:33:04;0.50;99.90
22680;DHT22;11507;44.858;10.374;2024-01-30T09:35:30;0.50;99.90
22680;DHT22;11507;44.858;10.374;2024-01-30T09:37:56;0.70;99.90
22680;DHT22;11507;44.858;10.374;2024-01-30T09:40:23;0.80;99.90
22680;DHT22;11507;44.858;10.374;2024-01-30T09:42:52;0.90;99.90
22680;DHT22;11507;44.858;10.374;2024-01-30T09:45:19;1.00;99.90
22680;DHT22;11507;44.858;10.374;2024-01-30T09:47:45;1.00;99.90
22680;DHT22;11507;44.858;10.374;2024-01-30T09:50:12;1.00;99.90
22680;DHT22;11507;44.858;10.374;2024-01-30T09:52:39;1.10;99.90
22680;DHT22;11507;44.858;10.374;2024-01-30T09:55:05;1.10;99.90
22680;DHT22;11507;44.858;10.374;2024-01-30T09:57:31;1.20;99.90
22680;DHT22;11507;44.858;10.374;2024-01-30T09:59:57;1.30;99.90
22680;DHT22;11507;44.858;10.374;2024-01-30T10:02:23;1.30;99.90
22680;DHT22;11507;44.858;10.374;2024-01-30T10:04:50;1.50;99.90
22680;DHT22;11507;44.858;10.374;2024-01-30T10:07:16;1.60;99.90
22680;DHT22;11507;44.858;10.374;2024-01-30T10:09:43;1.80;99.90
22680;DHT22;11507;44.858;10.374;2024-01-30T10:12:09;1.90;99.90
22680;DHT22;11507;44.858;10.374;2024-01-30T10:14:38;2.10;99.90
22680;DHT22;11507;44.858;10.374;2024-01-30T10:17:04;2.10;99.90
22680;DHT22;11507;44.858;10.374;2024-01-30T10:19:31;2.30;99.90
22680;DHT22;11507;44.858;10.374;2024-01-30T10:21:59;2.40;99.90
22680;DHT22;11507;44.858;10.374;2024-01-30T10:24:25;2.50;99.90
22680;DHT22;11507;44.858;10.374;2024-01-30T10:26:52;2.40;99.90
22680;DHT22;11507;44.858;10.374;2024-01-30T10:29:18;2.30;99.90
22680;DHT22;11507;44.858;10.374;2024-01-30T10:31:44;2.30;99.90
22680;DHT22;11507;44.858;10.374;2024-01-30T10:34:10;2.40;99.90
22680;DHT22;11507;44.858;10.374;2024-01-30T10:36:39;2.50;99.90
22680;DHT22;11507;44.858;10.374;2024-01-30T10:39:09;2.60;99.90
22680;DHT22;11507;44.858;10.374;2024-01-30T10:41:42;2.70;99.90
22680;DHT22;11507;44.858;10.374;2024-01-30T10:44:09;2.80;99.90
22680;DHT22;11507;44.858;10.374;2024-01-30T10:46:35;3.00;99.90
22680;DHT22;11507;44.858;10.374;2024-01-30T10:49:01;3.00;99.90
22680;DHT22;11507;44.858;10.374;2024-01-30T10:51:28;3.10;99.90
22680;DHT22;11507;44.858;10.374;2024-01-30T10:53:54;3.00;99.90
22680;DHT22;11507;44.858;10.374;2024-01-30T10:56:21;3.10;99.90
22680;DHT22;11507;44.858;10.374;2024-01-30T10:58:50;3.20;99.90
22680;DHT22;11507;44.858;10.374;2024-01-30T11:01:21;3.10;99.90
22680;DHT22;11507;44.858;10.374;2024-01-30T11:03:51;3.30;99.90
22680;DHT22;11507;44.858;10.374;2024-01-30T11:06:17;3.30;99.90
22680;DHT22;11507;44.858;10.374;2024-01-30T11:08:46;3.40;99.90
22680;DHT22;11507;44.858;10.374;2024-01-30T11:11:12;3.50;99.90
22680;DHT22;11507;44.858;10.374;2024-01-30T11:13:38;3.40;99.90
22680;DHT22;11507;44.858;10.374;2024-01-30T11:16:04;3.50;99.90
22680;DHT22;11507;44.858;10.374;2024-01-30T11:18:31;3.60;99.90
22680;DHT22;11507;44.858;10.374;2024-01-30T11:21:00;3.60;99.90
22680;DHT22;11507;44.858;10.374;2024-01-30T11:23:30;3.50;99.90
22680;DHT22;11507;44.858;10.374;2024-01-30T11:25:56;3.50;99.90
22680;DHT22;11507;44.858;10.374;2024-01-30T11:28:23;3.50;99.90
22680;DHT22;11507;44.858;10.374;2024-01-30T11:30:49;3.50;99.90
22680;DHT22;11507;44.858;10.374;2024-01-30T11:33:30;3.50;99.90
22680;DHT22;11507;44.858;10.374;2024-01-30T11:35:57;3.60;99.90
22680;DHT22;11507;44.858;10.374;2024-01-30T11:38:25;3.90;99.90
22680;DHT22;11507;44.858;10.374;2024-01-30T11:40:51;4.10;99.90
22680;DHT22;11507;44.858;10.374;2024-01-30T11:43:17;4.40;99.90
22680;DHT22;11507;44.858;10.374;2024-01-30T11:45:44;4.40;99.90
22680;DHT22;11507;44.858;10.374;2024-01-30T11:48:13;4.40;99.90
22680;DHT22;11507;44.858;10.374;2024-01-30T11:50:39;4.30;99.90
22680;DHT22;11507;44.858;10.374;2024-01-30T11:53:10;4.30;99.90
22680;DHT22;11507;44.858;10.374;2024-01-30T11:55:36;4.40;99.90
22680;DHT22;11507;44.858;10.374;2024-01-30T11:58:03;4.40;99.90
22680;DHT22;11507;44.858;10.374;2024-01-30T12:00:29;4.40;99.90
22680;DHT22;11507;44.858;10.374;2024-01-30T12:02:56;4.40;99.90
22680;DHT22;11507;44.858;10.374;2024-01-30T12:05:23;4.50;99.90
22680;DHT22;11507;44.858;10.374;2024-01-30T12:07:49;4.50;99.90
22680;DHT22;11507;44.858;10.374;2024-01-30T12:10:15;4.50;99.90
22680;DHT22;11507;44.858;10.374;2024-01-30T12:12:41;4.50;99.90
22680;DHT22;11507;44.858;10.374;2024-01-30T12:15:08;4.70;99.90
22680;DHT22;11507;44.858;10.374;2024-01-30T12:17:34;5.30;99.90
22680;DHT22;11507;44.858;10.374;2024-01-30T12:20:11;5.60;99.90
22680;DHT22;11507;44.858;10.374;2024-01-30T12:22:37;5.80;99.90
22680;DHT22;11507;44.858;10.374;2024-01-30T12:25:04;5.70;99.90
22680;DHT22;11507;44.858;10.374;2024-01-30T12:27:31;5.80;99.90
22680;DHT22;11507;44.858;10.374;2024-01-30T12:29:57;5.70;99.90
22680;DHT22;11507;44.858;10.374;2024-01-30T12:32:23;5.80;99.90
22680;DHT22;11507;44.858;10.374;2024-01-30T12:34:49;5.80;99.90
22680;DHT22;11507;44.858;10.374;2024-01-30T12:37:15;6.00;99.90
22680;DHT22;11507;44.858;10.374;2024-01-30T12:39:47;6.30;99.90
22680;DHT22;11507;44.858;10.374;2024-01-30T12:42:13;6.50;99.90
22680;DHT22;11507;44.858;10.374;2024-01-30T12:44:39;6.70;99.90
22680;DHT22;11507;44.858;10.374;2024-01-30T12:47:05;6.80;99.90
22680;DHT22;11507;44.858;10.374;2024-01-30T12:49:31;6.90;99.90
22680;DHT22;11507;44.858;10.374;2024-01-30T12:51:58;7.00;99.90
22680;DHT22;11507;44.858;10.374;2024-01-30T12:54:24;7.20;99.90
22680;DHT22;11507;44.858;10.374;2024-01-30T12:56:50;7.40;99.90
22680;DHT22;11507;44.858;10.374;2024-01-30T12:59:16;7.60;99.90
22680;DHT22;11507;44.858;10.374;2024-01-30T13:01:42;7.70;99.90
22680;DHT22;11507;44.858;10.374;2024-01-30T13:04:08;7.70;99.90
22680;DHT22;11507;44.858;10.374;2024-01-30T13:06:33;7.80;99.90
22680;DHT22;11507;44.858;10.374;2024-01-30T13:08:59;7.90;99.90
22680;DHT22;11507;44.858;10.374;2024-01-30T13:11:25;7.80;99.90
22680;DHT22;11507;44.858;10.374;2024-01-30T13:13:51;7.90;99.90
22680;DHT22;11507;44.858;10.374;2024-01-30T13:16:17;8.00;99.90
22680;DHT22;11507;44.858;10.374;2024-01-30T13:18:43;8.90;99.90
22680;DHT22;11507;44.858;10.374;2024-01-30T13:21:09;9.60;99.90
22680;DHT22;11507;44.858;10.374;2024-01-30T13:23:35;9.80;99.90
22680;DHT22;11507;44.858;10.374;2024-01-30T13:26:01;9.90;99.90
22680;DHT22;11507;44.858;10.374;2024-01-30T13:28:28;10.10;99.90
22680;DHT22;11507;44.858;10.374;2024-01-30T13:30:53;10.20;99.90
22680;DHT22;11507;44.858;10.374;2024-01-30T13:33:19;10.70;99.90
22680;DHT22;11507;44.858;10.374;2024-01-30T13:35:45;11.80;99.90
22680;DHT22;11507;44.858;10.374;2024-01-30T13:38:11;13.40;99.90
22680;DHT22;11507;44.858;10.374;2024-01-30T13:40:37;14.90;99.90
22680;DHT22;11507;44.858;10.374;2024-01-30T13:43:03;16.20;99.90
22680;DHT22;11507;44.858;10.374;2024-01-30T13:45:29;17.70;99.90
22680;DHT22;11507;44.858;10.374;2024-01-30T13:47:55;18.50;99.90
22680;DHT22;11507;44.858;10.374;2024-01-30T13:50:21;19.30;99.40
22680;DHT22;11507;44.858;10.374;2024-01-30T13:52:47;20.00;96.20
22680;DHT22;11507;44.858;10.374;2024-01-30T13:55:13;20.30;92.20
22680;DHT22;11507;44.858;10.374;2024-01-30T13:57:38;20.80;91.90
22680;DHT22;11507;44.858;10.374;2024-01-30T14:00:05;21.20;92.20
22680;DHT22;11507;44.858;10.374;2024-01-30T14:02:38;21.40;87.90
22680;DHT22;11507;44.858;10.374;2024-01-30T14:05:04;21.40;85.50
22680;DHT22;11507;44.858;10.374;2024-01-30T14:07:31;21.40;83.30
22680;DHT22;11507;44.858;10.374;2024-01-30T14:09:57;21.30;83.00
22680;DHT22;11507;44.858;10.374;2024-01-30T14:12:23;20.60;79.20
22680;DHT22;11507;44.858;10.374;2024-01-30T14:14:49;19.80;81.00
22680;DHT22;11507;44.858;10.374;2024-01-30T14:17:15;18.70;83.90
22680;DHT22;11507;44.858;10.374;2024-01-30T14:19:41;17.40;87.40
22680;DHT22;11507;44.858;10.374;2024-01-30T14:22:07;16.00;90.50
22680;DHT22;11507;44.858;10.374;2024-01-30T14:24:33;14.90;93.80
22680;DHT22;11507;44.858;10.374;2024-01-30T14:26:59;14.10;96.80
22680;DHT22;11507;44.858;10.374;2024-01-30T14:29:25;13.40;99.50
22680;DHT22;11507;44.858;10.374;2024-01-30T14:31:52;12.80;99.90
22680;DHT22;11507;44.858;10.374;2024-01-30T14:34:17;12.20;99.90
22680;DHT22;11507;44.858;10.374;2024-01-30T14:36:44;11.70;99.90
22680;DHT22;11507;44.858;10.374;2024-01-30T14:39:10;11.40;99.90
22680;DHT22;11507;44.858;10.374;2024-01-30T14:41:36;11.00;99.90
22680;DHT22;11507;44.858;10.374;2024-01-30T14:44:02;10.50;99.90
22680;DHT22;11507;44.858;10.374;2024-01-30T14:46:29;10.30;99.90
22680;DHT22;11507;44.858;10.374;2024-01-30T14:48:55;10.00;99.90
22680;DHT22;11507;44.858;10.374;2024-01-30T14:51:24;9.80;99.90
22680;DHT22;11507;44.858;10.374;2024-01-30T14:53:50;9.70;99.90
22680;DHT22;11507;44.858;10.374;2024-01-30T14:56:16;9.60;99.90
22680;DHT22;11507;44.858;10.374;2024-01-30T14:58:43;9.60;99.90
22680;DHT22;11507;44.858;10.374;2024-01-30T15:01:09;9.50;99.90
22680;DHT22;11507;44.858;10.374;2024-01-30T15:03:35;9.40;99.90
22680;DHT22;11507;44.858;10.374;2024-01-30T15:06:01;9.40;99.90
22680;DHT22;11507;44.858;10.374;2024-01-30T15:08:30;9.30;99.90
22680;DHT22;11507;44.858;10.374;2024-01-30T15:10:56;9.20;99.90
22680;DHT22;11507;44.858;10.374;2024-01-30T15:13:23;9.00;99.90
22680;DHT22;11507;44.858;10.374;2024-01-30T15:15:49;8.90;99.90
22680;DHT22;11507;44.858;10.374;2024-01-30T15:18:15;8.70;99.90
22680;DHT22;11507;44.858;10.374;2024-01-30T15:20:41;8.50;99.90